This is the latest recevied weather packets stored in our database for station/object VK1KCM-5. If no packets are shown the sender has not sent any weather packets the latest 10 day(s).
| Time | Temp. | Humidity | Pressure | Rain* | Wind** | Luminosity | Snow |
|---|---|---|---|---|---|---|---|
| 1788132267 | 11.67° C | 65% | 1030.5 hPa | 0 mm | - | - | - |
| 1788132017 | 11.11° C | 66% | 1030.7 hPa | 0 mm | - | - | - |
| 1788131731 | 11.11° C | 66% | 1030.7 hPa | 0 mm | - | - | - |
| 1788131471 | 11.11° C | 66% | 1030.7 hPa | 0 mm | - | - | - |
| 1788131211 | 11.67° C | 66% | 1030.6 hPa | 0 mm | - | - | - |
| 1788130950 | 11.11° C | 67% | 1030.6 hPa | 0 mm | - | - | - |
| 1788130692 | 10° C | 71% | 1031 hPa | 0 mm | - | - | - |
| 1788130437 | 10° C | 71% | 1030.8 hPa | 0 mm | - | - | - |
| 1788130192 | 9.44° C | 72% | 1031.1 hPa | 0 mm | - | - | - |
| 1788129917 | 8.89° C | 72% | 1031.2 hPa | 0 mm | - | - | - |
| 1788129674 | 8.89° C | 72% | 1031.2 hPa | 0 mm | - | - | - |
| 1788129421 | 8.33° C | 75% | 1031.3 hPa | 0 mm | - | - | - |
| 1788129132 | 8.33° C | 77% | 1031.6 hPa | 0 mm | - | - | - |
| 1788128847 | 7.22° C | 80% | 1031.4 hPa | 0 mm | - | - | - |
| 1788128577 | 7.22° C | 79% | 1031.8 hPa | 0 mm | - | - | - |
| 1788128291 | 6.67° C | 80% | 1031.8 hPa | 0 mm | - | - | - |
| 1788128002 | 6.67° C | 82% | 1031.8 hPa | 0 mm | - | - | - |
| 1788127747 | 5.56° C | 85% | 1031.9 hPa | 0 mm | - | - | - |
| 1788127457 | 5.56° C | 85% | 1032.2 hPa | 0 mm | - | - | - |
| 1788127167 | 5° C | 86% | 1032.2 hPa | 0 mm | - | - | - |
| 1788126907 | 5° C | 87% | 1032.3 hPa | 0 mm | - | - | - |
| 1788126637 | 5° C | 87% | 1032.3 hPa | 0 mm | - | - | - |
| 1788126357 | 5° C | 87% | 1032.3 hPa | 0 mm | - | - | - |
| 1788126067 | 4.44° C | 88% | 1032.4 hPa | 0 mm | - | - | - |
| 1788125802 | 4.44° C | 88% | 1032.6 hPa | 0 mm | - | - | - |
* Rain latest hour (hover to see other rain measurements)
** Current wind speed in m/s (hover to see current wind gust speed)